createdAt,value
2023-04-19T00:01:21.204Z,7.05
2023-04-19T00:03:48.614Z,7.11
2023-04-19T00:06:16.840Z,7.07
2023-04-19T00:08:43.923Z,7.04
2023-04-19T00:11:11.073Z,7.04
2023-04-19T00:13:38.453Z,6.99
2023-04-19T00:16:08.931Z,6.99
2023-04-19T00:18:36.541Z,6.98
2023-04-19T00:21:03.996Z,7.03
2023-04-19T00:23:31.174Z,6.98
2023-04-19T00:25:58.277Z,6.88
2023-04-19T00:28:26.114Z,6.83
2023-04-19T00:30:53.210Z,6.85
2023-04-19T00:33:25.743Z,6.76
2023-04-19T00:35:53.190Z,6.74
2023-04-19T00:38:20.961Z,6.74
2023-04-19T00:40:48.130Z,6.78
2023-04-19T00:43:19.848Z,6.72
2023-04-19T00:45:48.144Z,6.68
2023-04-19T00:48:15.689Z,6.67
2023-04-19T00:50:44.820Z,6.66
2023-04-19T00:53:12.334Z,6.62
2023-04-19T00:55:39.884Z,6.59
2023-04-19T00:58:08.642Z,6.71
2023-04-19T01:00:36.915Z,6.58
2023-04-19T01:03:04.854Z,6.67
2023-04-19T01:05:32.559Z,6.63
2023-04-19T01:07:59.765Z,6.64
2023-04-19T01:10:27.361Z,6.61
2023-04-19T01:12:54.728Z,6.57
2023-04-19T01:15:24.852Z,6.51
2023-04-19T01:17:52.295Z,6.59
2023-04-19T01:20:19.442Z,6.60
2023-04-19T01:22:46.509Z,6.57
2023-04-19T01:25:13.755Z,6.59
2023-04-19T01:27:44.379Z,6.56
2023-04-19T01:30:11.942Z,6.44
2023-04-19T01:32:39.540Z,6.40
2023-04-19T01:35:06.969Z,6.42
2023-04-19T01:37:37.440Z,6.35
2023-04-19T01:40:05.630Z,6.38
2023-04-19T01:42:32.960Z,6.34
2023-04-19T01:45:01.092Z,6.35
2023-04-19T01:47:28.636Z,6.31
2023-04-19T01:49:55.736Z,6.33
2023-04-19T01:52:22.895Z,6.25
2023-04-19T01:54:50.048Z,6.33
2023-04-19T01:57:18.805Z,6.32
2023-04-19T01:59:45.917Z,6.29
2023-04-19T02:02:13.097Z,6.23
2023-04-19T02:04:40.235Z,6.13
2023-04-19T02:07:08.012Z,6.24
2023-04-19T02:09:36.775Z,6.22
2023-04-19T02:12:04.889Z,6.19
2023-04-19T02:14:32.266Z,6.16
2023-04-19T02:16:59.331Z,6.14
2023-04-19T02:19:26.373Z,6.11
2023-04-19T02:21:57.542Z,6.13
2023-04-19T02:24:25.268Z,6.16
2023-04-19T02:26:52.518Z,5.95
2023-04-19T02:29:19.626Z,5.90
2023-04-19T02:31:46.869Z,5.83
2023-04-19T02:34:14.202Z,5.77
2023-04-19T02:36:41.434Z,5.68
2023-04-19T02:39:08.882Z,5.64
2023-04-19T02:41:39.129Z,5.58
2023-04-19T02:44:06.210Z,5.51
2023-04-19T02:46:34.774Z,5.58
2023-04-19T02:49:01.944Z,5.52
2023-04-19T02:51:29.502Z,5.42
2023-04-19T02:53:56.903Z,5.42
2023-04-19T02:56:24.870Z,5.42
2023-04-19T02:58:53.621Z,5.46
2023-04-19T03:01:20.949Z,5.54
2023-04-19T03:03:48.220Z,5.46
2023-04-19T03:06:16.896Z,5.54
2023-04-19T03:08:44.067Z,5.56
2023-04-19T03:11:12.169Z,5.46
2023-04-19T03:13:40.655Z,5.43
2023-04-19T03:16:08.432Z,5.38
2023-04-19T03:18:36.792Z,5.43
2023-04-19T03:21:05.416Z,5.43
2023-04-19T03:23:40.508Z,5.39
2023-04-19T03:26:07.733Z,5.40
2023-04-19T03:28:48.487Z,5.39
2023-04-19T03:31:26.162Z,5.36
2023-04-19T03:33:54.299Z,5.32
2023-04-19T03:36:27.115Z,5.33
2023-04-19T03:38:54.261Z,5.30
2023-04-19T03:41:24.836Z,5.32
2023-04-19T03:44:15.754Z,5.33
2023-04-19T03:46:46.587Z,5.33
2023-04-19T03:49:16.723Z,5.36
2023-04-19T03:51:47.287Z,5.23
2023-04-19T03:54:14.593Z,5.24
2023-04-19T03:56:41.896Z,5.22
2023-04-19T03:59:12.549Z,5.08
2023-04-19T04:01:42.314Z,5.10
2023-04-19T04:04:10.064Z,5.13
2023-04-19T04:06:37.455Z,5.08
2023-04-19T04:09:04.532Z,4.99
2023-04-19T04:11:31.807Z,5.05
2023-04-19T04:13:59.215Z,4.95
2023-04-19T04:16:29.357Z,4.95
2023-04-19T04:18:56.582Z,4.92
2023-04-19T04:21:27.232Z,4.88
2023-04-19T04:23:56.781Z,4.82
2023-04-19T04:26:39.970Z,4.75
2023-04-19T04:29:19.329Z,4.75
2023-04-19T04:31:46.901Z,4.71
2023-04-19T04:34:17.698Z,4.67
2023-04-19T04:36:51.512Z,4.62
2023-04-19T04:39:21.446Z,4.66
2023-04-19T04:41:49.622Z,4.68
2023-04-19T04:44:16.697Z,4.70
2023-04-19T04:46:45.522Z,4.73
2023-04-19T04:49:20.805Z,4.72
2023-04-19T04:51:47.924Z,4.68
2023-04-19T04:54:15.787Z,4.68
2023-04-19T04:56:43.923Z,4.66
2023-04-19T04:59:11.368Z,4.51
2023-04-19T05:01:42.747Z,4.47
2023-04-19T05:04:10.121Z,4.50
2023-04-19T05:06:37.210Z,4.44
2023-04-19T05:09:04.771Z,4.57
2023-04-19T05:11:34.670Z,4.67
2023-04-19T05:14:03.319Z,4.71
2023-04-19T05:16:33.159Z,4.85
2023-04-19T05:19:00.509Z,5.01
2023-04-19T05:21:33.479Z,5.01
2023-04-19T05:24:04.089Z,4.82
2023-04-19T05:26:33.586Z,4.76
2023-04-19T05:29:01.874Z,4.69
2023-04-19T05:31:40.271Z,4.64
2023-04-19T05:34:19.753Z,4.78
2023-04-19T05:36:49.080Z,4.97
2023-04-19T05:39:17.039Z,4.94
2023-04-19T05:41:44.080Z,5.03
2023-04-19T05:44:11.048Z,5.28
2023-04-19T05:46:38.309Z,5.69
2023-04-19T05:49:07.267Z,6.20
2023-04-19T05:51:59.644Z,6.52
2023-04-19T05:54:36.157Z,7.04
2023-04-19T05:57:04.455Z,7.55
2023-04-19T05:59:31.941Z,7.35
2023-04-19T06:01:59.686Z,6.74
2023-04-19T06:04:27.885Z,6.24
2023-04-19T06:06:55.293Z,5.73
2023-04-19T06:09:22.683Z,5.44
2023-04-19T06:11:51.662Z,5.39
2023-04-19T06:14:19.501Z,5.37
2023-04-19T06:16:47.061Z,5.28
2023-04-19T06:19:14.345Z,5.35
2023-04-19T06:21:41.471Z,5.49
2023-04-19T06:24:08.715Z,5.47
2023-04-19T06:26:35.842Z,5.47
2023-04-19T06:29:03.411Z,5.64
2023-04-19T06:31:30.635Z,5.84
2023-04-19T06:33:58.233Z,6.17
2023-04-19T06:36:25.561Z,6.41
2023-04-19T06:38:52.660Z,6.32
2023-04-19T06:41:19.771Z,5.87
2023-04-19T06:43:46.913Z,6.06
2023-04-19T06:46:14.577Z,6.35
2023-04-19T06:48:42.020Z,6.59
2023-04-19T06:51:09.615Z,6.77
2023-04-19T06:53:38.019Z,6.63
2023-04-19T06:56:11.061Z,6.94
2023-04-19T06:58:39.595Z,7.37
2023-04-19T07:01:08.355Z,7.16
2023-04-19T07:03:35.974Z,7.32
2023-04-19T07:06:03.476Z,7.03
2023-04-19T07:08:48.259Z,6.37
2023-04-19T07:11:16.848Z,6.41
2023-04-19T07:13:44.117Z,6.53
2023-04-19T07:16:11.483Z,7.08
2023-04-19T07:18:38.767Z,7.66
2023-04-19T07:21:06.089Z,8.29
2023-04-19T07:23:33.351Z,8.70
2023-04-19T07:26:00.966Z,8.33
2023-04-19T07:28:33.724Z,7.52
2023-04-19T07:31:01.166Z,7.15
2023-04-19T07:33:28.420Z,7.34
2023-04-19T07:35:56.673Z,7.45
2023-04-19T07:38:24.985Z,7.49
2023-04-19T07:40:52.422Z,6.80
2023-04-19T07:43:19.605Z,6.73
2023-04-19T07:45:46.671Z,6.71
2023-04-19T07:48:13.838Z,6.39
2023-04-19T07:50:43.474Z,6.21
2023-04-19T07:53:10.826Z,6.40
2023-04-19T07:55:38.087Z,6.63
2023-04-19T07:58:05.157Z,6.69
2023-04-19T08:00:34.791Z,7.05
2023-04-19T08:03:02.545Z,6.89
2023-04-19T08:05:30.117Z,7.13
2023-04-19T08:07:57.184Z,7.63
2023-04-19T08:10:24.784Z,7.82
2023-04-19T08:13:05.233Z,7.53
2023-04-19T08:18:05.601Z,7.58
2023-04-19T08:20:33.227Z,8.15
2023-04-19T08:23:07.208Z,7.57
2023-04-19T08:25:38.474Z,7.09
2023-04-19T08:28:06.015Z,7.23
2023-04-19T08:30:33.295Z,7.32
2023-04-19T08:33:02.076Z,7.21
2023-04-19T08:35:43.248Z,7.63
2023-04-19T08:38:11.127Z,7.58
2023-04-19T08:40:46.896Z,7.87
2023-04-19T08:43:21.526Z,7.93
2023-04-19T08:45:49.963Z,7.66
2023-04-19T08:48:18.320Z,7.85
2023-04-19T08:51:04.295Z,7.63
2023-04-19T08:53:35.536Z,7.86
2023-04-19T08:58:57.042Z,8.67
2023-04-19T09:01:34.655Z,8.55
2023-04-19T09:04:17.021Z,8.89
2023-04-19T09:06:54.765Z,9.57
2023-04-19T09:11:59.976Z,10.49
2023-04-19T09:14:29.182Z,10.77
2023-04-19T09:17:16.311Z,10.66
2023-04-19T09:19:48.418Z,10.93
2023-04-19T09:22:15.929Z,10.62
2023-04-19T09:27:19.490Z,10.89
2023-04-19T09:29:54.213Z,11.00
2023-04-19T09:32:24.694Z,11.09
2023-04-19T09:34:56.607Z,11.02
2023-04-19T09:39:57.575Z,10.65
2023-04-19T09:42:47.318Z,10.31
2023-04-19T09:45:29.231Z,9.42
2023-04-19T09:48:07.961Z,8.69
2023-04-19T09:50:59.644Z,8.60
2023-04-19T09:53:42.959Z,8.59
2023-04-19T09:56:18.475Z,8.64
2023-04-19T09:58:51.376Z,9.77
2023-04-19T10:01:23.233Z,11.40
2023-04-19T10:03:51.569Z,11.50
2023-04-19T10:08:50.994Z,10.02
2023-04-19T10:11:21.865Z,10.48
2023-04-19T10:13:53.129Z,10.25
2023-04-19T10:16:20.807Z,9.71
2023-04-19T10:18:52.392Z,10.36
2023-04-19T10:21:20.739Z,10.31
2023-04-19T10:23:48.415Z,10.33
2023-04-19T10:26:16.071Z,10.66
2023-04-19T10:28:43.688Z,10.46
2023-04-19T10:31:13.847Z,10.14
2023-04-19T10:33:41.711Z,9.81
2023-04-19T10:36:09.619Z,10.01
2023-04-19T10:38:43.209Z,10.86
2023-04-19T10:41:17.529Z,11.05
2023-04-19T10:44:08.779Z,10.79
2023-04-19T10:46:38.284Z,11.69
2023-04-19T10:49:15.197Z,12.59
2023-04-19T10:51:55.007Z,12.68
2023-04-19T10:54:35.884Z,11.99
2023-04-19T10:57:05.313Z,11.06
2023-04-19T10:59:35.358Z,10.63
2023-04-19T11:02:25.972Z,10.50
2023-04-19T11:04:53.415Z,10.96
2023-04-19T11:07:40.502Z,11.52
2023-04-19T11:10:08.842Z,11.89
2023-04-19T11:12:36.281Z,12.37
2023-04-19T11:15:05.835Z,11.73
2023-04-19T11:17:35.592Z,11.45
2023-04-19T11:20:10.684Z,11.09
2023-04-19T11:22:43.010Z,10.50
2023-04-19T11:25:10.389Z,9.84
2023-04-19T11:27:38.294Z,9.53
2023-04-19T11:30:39.135Z,9.38
2023-04-19T11:33:26.345Z,9.37
2023-04-19T11:35:53.451Z,9.44
2023-04-19T11:38:21.172Z,9.05
2023-04-19T11:40:48.340Z,8.92
2023-04-19T11:43:15.383Z,8.70
2023-04-19T11:45:42.843Z,8.76
2023-04-19T11:48:16.354Z,8.87
2023-04-19T11:50:45.917Z,9.05
2023-04-19T11:53:21.759Z,9.23
2023-04-19T11:55:58.226Z,9.27
2023-04-19T11:58:36.020Z,9.27
2023-04-19T12:01:22.232Z,9.26
2023-04-19T12:03:55.645Z,9.27
2023-04-19T12:06:26.866Z,9.52
2023-04-19T12:08:55.792Z,9.84
2023-04-19T12:11:27.848Z,9.74
2023-04-19T12:14:11.744Z,9.75
2023-04-19T12:16:39.314Z,9.60
2023-04-19T12:19:26.117Z,9.34
2023-04-19T12:21:53.221Z,9.24
2023-04-19T12:24:20.333Z,9.26
2023-04-19T12:27:00.480Z,9.52
2023-04-19T12:29:29.491Z,9.70
2023-04-19T12:31:56.634Z,10.36
2023-04-19T12:34:23.836Z,11.19
2023-04-19T12:36:51.236Z,11.40
2023-04-19T12:39:18.752Z,10.88
2023-04-19T12:41:52.513Z,10.01
2023-04-19T12:44:19.645Z,9.91
2023-04-19T12:46:46.706Z,9.63
2023-04-19T12:49:14.038Z,9.75
2023-04-19T12:51:42.766Z,10.34
2023-04-19T12:54:09.914Z,10.89
2023-04-19T12:56:37.250Z,10.75
2023-04-19T12:59:04.338Z,10.21
2023-04-19T13:01:32.937Z,10.14
2023-04-19T13:04:00.278Z,9.82
2023-04-19T13:06:27.759Z,9.64
2023-04-19T13:08:55.317Z,9.75
2023-04-19T13:11:25.570Z,9.91
2023-04-19T13:13:54.911Z,10.02
2023-04-19T13:16:23.059Z,10.16
2023-04-19T13:18:52.461Z,10.19
2023-04-19T13:21:19.770Z,10.48
2023-04-19T13:23:46.873Z,11.04
2023-04-19T13:26:15.776Z,11.69
2023-04-19T13:28:42.881Z,11.86
2023-04-19T13:31:10.024Z,12.12
2023-04-19T13:33:37.255Z,12.30
2023-04-19T13:36:04.923Z,12.40
2023-04-19T13:38:32.520Z,12.52
2023-04-19T13:41:00.747Z,12.14
2023-04-19T13:43:27.896Z,11.78
2023-04-19T13:45:55.007Z,11.12
2023-04-19T13:48:22.157Z,10.32
2023-04-19T13:50:51.130Z,9.41
2023-04-19T13:53:19.693Z,8.75
2023-04-19T13:55:46.842Z,8.04
2023-04-19T13:58:13.930Z,7.76
2023-04-19T14:00:41.099Z,7.87
2023-04-19T14:03:08.497Z,7.83
2023-04-19T14:05:35.978Z,7.87
2023-04-19T14:08:03.643Z,7.90
2023-04-19T14:10:31.252Z,7.72
2023-04-19T14:12:58.438Z,7.73
2023-04-19T14:15:25.658Z,7.77
2023-04-19T14:17:54.218Z,7.30
2023-04-19T14:20:21.483Z,6.85
2023-04-19T14:22:48.710Z,6.30
2023-04-19T14:25:16.591Z,6.36
2023-04-19T14:27:44.037Z,6.17
2023-04-19T14:30:11.363Z,6.15
2023-04-19T14:32:39.167Z,6.11
2023-04-19T14:35:08.392Z,6.19
2023-04-19T14:37:35.638Z,6.15
2023-04-19T14:40:03.715Z,6.38
2023-04-19T14:42:31.704Z,6.35
2023-04-19T14:44:59.554Z,6.66
2023-04-19T14:47:26.858Z,6.77
2023-04-19T14:49:54.511Z,6.98
2023-04-19T14:52:21.995Z,6.92
2023-04-19T14:54:49.368Z,6.77
2023-04-19T14:57:16.636Z,6.70
2023-04-19T14:59:43.867Z,6.58
2023-04-19T15:02:13.204Z,6.31
2023-04-19T15:04:43.809Z,6.35
2023-04-19T15:07:12.506Z,6.02
2023-04-19T15:09:41.199Z,5.90
2023-04-19T15:12:08.451Z,5.49
2023-04-19T15:14:35.691Z,5.06
2023-04-19T15:17:02.780Z,5.01
2023-04-19T15:19:31.182Z,4.98
2023-04-19T15:21:58.298Z,4.99
2023-04-19T15:24:25.485Z,5.04
2023-04-19T15:26:52.971Z,4.92
2023-04-19T15:29:20.095Z,4.93
2023-04-19T15:31:47.281Z,4.93
2023-04-19T15:34:14.467Z,5.05
2023-04-19T15:36:41.605Z,5.04
2023-04-19T15:39:09.238Z,4.99
2023-04-19T15:41:36.389Z,4.92
2023-04-19T15:44:03.486Z,5.03
2023-04-19T15:46:30.628Z,5.02
2023-04-19T15:48:58.296Z,4.94
2023-04-19T15:51:25.320Z,5.09
2023-04-19T15:53:52.477Z,5.03
2023-04-19T15:56:19.549Z,5.10
2023-04-19T15:58:46.711Z,4.99
2023-04-19T16:01:14.888Z,4.84
2023-04-19T16:03:44.816Z,4.83
2023-04-19T16:06:12.187Z,4.90
2023-04-19T16:08:39.593Z,4.86
2023-04-19T16:11:06.757Z,4.96
2023-04-19T16:13:33.999Z,4.89
2023-04-19T16:16:01.701Z,4.86
2023-04-19T16:18:28.837Z,5.01
2023-04-19T16:20:55.925Z,5.10
2023-04-19T16:23:24.467Z,5.23
2023-04-19T16:25:51.784Z,5.34
2023-04-19T16:28:19.823Z,5.53
2023-04-19T16:30:50.012Z,5.41
2023-04-19T16:33:17.127Z,5.35
2023-04-19T16:35:44.775Z,5.26
2023-04-19T16:38:11.896Z,5.20
2023-04-19T16:40:38.984Z,5.03
2023-04-19T16:43:06.547Z,5.08
2023-04-19T16:45:33.876Z,5.13
2023-04-19T16:48:01.187Z,5.02
2023-04-19T16:50:28.506Z,5.01
2023-04-19T16:52:55.892Z,5.05
2023-04-19T16:55:23.441Z,5.07
2023-04-19T16:57:51.201Z,4.87
2023-04-19T17:00:18.930Z,4.84
2023-04-19T17:02:46.147Z,4.85
2023-04-19T17:05:14.494Z,4.83
2023-04-19T17:07:43.231Z,4.83
2023-04-19T17:10:10.533Z,4.81
2023-04-19T17:12:37.674Z,4.81
2023-04-19T17:15:05.453Z,4.82
2023-04-19T17:17:32.568Z,4.74
2023-04-19T17:19:59.657Z,4.64
2023-04-19T17:22:26.828Z,4.76
2023-04-19T17:24:56.033Z,4.74
2023-04-19T17:27:23.192Z,4.76
2023-04-19T17:29:50.300Z,4.78
2023-04-19T17:32:17.405Z,4.69
2023-04-19T17:34:44.470Z,4.66
2023-04-19T17:37:11.670Z,4.67
2023-04-19T17:39:38.759Z,4.65
2023-04-19T17:42:06.206Z,4.59
2023-04-19T17:44:33.293Z,4.54
2023-04-19T17:47:00.476Z,4.67
2023-04-19T17:49:27.729Z,4.60
2023-04-19T17:51:56.219Z,4.63
2023-04-19T17:54:23.399Z,4.55
2023-04-19T17:56:52.544Z,4.48
2023-04-19T17:59:19.836Z,4.47
2023-04-19T18:01:46.999Z,4.53
2023-04-19T18:04:17.815Z,4.47
2023-04-19T18:06:46.496Z,4.53
2023-04-19T18:09:13.908Z,4.50
2023-04-19T18:11:41.147Z,4.40
2023-04-19T18:14:08.397Z,4.31
2023-04-19T18:16:35.866Z,4.34
2023-04-19T18:19:03.031Z,4.31
2023-04-19T18:21:30.130Z,4.18
2023-04-19T18:23:57.220Z,4.16
2023-04-19T18:26:24.376Z,4.06
2023-04-19T18:28:51.511Z,4.01
2023-04-19T18:31:18.567Z,4.01
2023-04-19T18:33:45.749Z,3.99
2023-04-19T18:36:12.836Z,4.01
2023-04-19T18:38:39.915Z,4.05
2023-04-19T18:41:07.141Z,4.13
2023-04-19T18:43:34.235Z,4.13
2023-04-19T18:46:01.454Z,4.18
2023-04-19T18:48:29.861Z,4.21
2023-04-19T18:50:57.608Z,4.19
2023-04-19T18:53:31.595Z,4.16
2023-04-19T18:55:58.778Z,4.16
2023-04-19T18:58:27.213Z,4.04
2023-04-19T19:00:54.858Z,3.98
2023-04-19T19:03:49.830Z,3.88
2023-04-19T19:06:10.849Z,3.87
2023-04-19T19:08:38.182Z,3.79
2023-04-19T19:13:36.064Z,3.88
2023-04-19T19:16:05.314Z,3.90
2023-04-19T19:18:32.608Z,3.86
2023-04-19T19:21:01.274Z,3.86
2023-04-19T19:23:36.009Z,3.85
2023-04-19T19:26:05.051Z,3.96
2023-04-19T19:28:32.138Z,4.01
2023-04-19T19:30:59.309Z,4.00
2023-04-19T19:33:28.754Z,3.93
2023-04-19T19:35:56.085Z,3.93
2023-04-19T19:38:26.059Z,3.89
2023-04-19T19:41:34.735Z,3.86
2023-04-19T19:43:41.559Z,3.89
2023-04-19T19:46:10.711Z,3.82
2023-04-19T19:48:42.326Z,3.79
2023-04-19T19:51:41.750Z,3.92
2023-04-19T19:53:56.983Z,4.06
2023-04-19T19:56:24.614Z,4.01
2023-04-19T19:58:59.300Z,4.02
2023-04-19T20:01:27.259Z,4.00
2023-04-19T20:03:56.144Z,3.91
2023-04-19T20:07:13.503Z,3.91
2023-04-19T20:09:10.834Z,3.88
2023-04-19T20:11:38.085Z,3.85
2023-04-19T20:14:05.376Z,3.77
2023-04-19T20:16:33.981Z,3.84
2023-04-19T20:19:03.096Z,3.79
2023-04-19T20:21:30.146Z,3.63
2023-04-19T20:23:57.216Z,3.55
2023-04-19T20:26:24.339Z,3.47
2023-04-19T20:28:52.570Z,3.41
2023-04-19T20:31:20.685Z,3.38
2023-04-19T20:33:49.706Z,3.41
2023-04-19T20:36:16.840Z,3.39
2023-04-19T20:38:44.990Z,3.39
2023-04-19T20:41:12.756Z,3.40
2023-04-19T20:43:39.829Z,3.55
2023-04-19T20:46:07.012Z,3.50
2023-04-19T20:48:34.546Z,3.55
2023-04-19T20:51:01.715Z,3.57
2023-04-19T20:53:29.040Z,3.52
2023-04-19T20:55:56.367Z,3.51
2023-04-19T20:58:23.457Z,3.46
2023-04-19T21:00:50.660Z,3.44
2023-04-19T21:03:18.040Z,3.52
2023-04-19T21:05:45.278Z,3.41
2023-04-19T21:08:12.419Z,3.33
2023-04-19T21:10:39.499Z,3.25
2023-04-19T21:13:06.566Z,3.17
2023-04-19T21:15:33.815Z,3.10
2023-04-19T21:18:00.916Z,3.21
2023-04-19T21:20:28.056Z,3.15
2023-04-19T21:22:55.073Z,3.17
2023-04-19T21:25:22.622Z,3.19
2023-04-19T21:27:49.778Z,3.18
2023-04-19T21:30:16.908Z,3.11
2023-04-19T21:32:44.209Z,3.14
2023-04-19T21:35:11.882Z,3.13
2023-04-19T21:37:39.029Z,3.11
2023-04-19T21:40:07.205Z,3.04
2023-04-19T21:42:35.762Z,3.00
2023-04-19T21:45:03.275Z,2.99
2023-04-19T21:47:31.936Z,2.96
2023-04-19T21:49:59.103Z,2.97
2023-04-19T21:52:29.298Z,2.92
2023-04-19T21:54:56.336Z,2.81
2023-04-19T21:57:24.723Z,2.93
2023-04-19T21:59:53.760Z,2.96
2023-04-19T22:02:20.955Z,2.90
2023-04-19T22:04:48.890Z,2.92
2023-04-19T22:07:18.218Z,2.76
2023-04-19T22:09:46.344Z,2.75
2023-04-19T22:12:17.578Z,2.76
2023-04-19T22:14:44.785Z,2.85
2023-04-19T22:17:14.612Z,2.82
2023-04-19T22:19:41.655Z,2.80
2023-04-19T22:22:08.742Z,2.80
2023-04-19T22:24:43.927Z,2.81
2023-04-19T22:27:20.761Z,2.80
2023-04-19T22:29:47.814Z,2.92
2023-04-19T22:32:15.011Z,2.94
2023-04-19T22:34:42.325Z,2.94
2023-04-19T22:37:09.466Z,3.05
2023-04-19T22:39:36.584Z,3.03
2023-04-19T22:42:03.734Z,2.96
2023-04-19T22:44:30.942Z,2.89
2023-04-19T22:46:59.460Z,2.94
2023-04-19T22:49:27.630Z,2.82
2023-04-19T22:51:54.951Z,2.72
2023-04-19T22:54:22.261Z,2.72
2023-04-19T22:56:49.442Z,2.64
2023-04-19T22:59:16.824Z,2.60
2023-04-19T23:01:44.024Z,2.57
2023-04-19T23:04:14.193Z,2.67
2023-04-19T23:06:44.617Z,2.62
2023-04-19T23:09:13.786Z,2.58
2023-04-19T23:11:41.265Z,2.63
2023-04-19T23:14:11.139Z,2.58
2023-04-19T23:16:41.343Z,2.48
2023-04-19T23:19:08.458Z,2.63
2023-04-19T23:21:36.031Z,2.50
2023-04-19T23:24:03.719Z,2.54
2023-04-19T23:26:30.949Z,2.50
2023-04-19T23:28:58.051Z,2.54
2023-04-19T23:31:25.177Z,2.64
2023-04-19T23:33:54.822Z,2.75
2023-04-19T23:36:22.678Z,2.68
2023-04-19T23:38:53.280Z,2.78
2023-04-19T23:41:20.372Z,2.55
2023-04-19T23:43:47.822Z,2.53
2023-04-19T23:46:14.969Z,2.64
2023-04-19T23:48:42.080Z,2.63
2023-04-19T23:51:09.157Z,2.63
2023-04-19T23:53:36.425Z,2.53
2023-04-19T23:56:03.610Z,2.58
2023-04-19T23:58:30.880Z,2.57
